createdAt,value
2023-01-12T00:02:23.865Z,7.80
2023-01-12T00:04:52.365Z,7.80
2023-01-12T00:07:21.182Z,7.90
2023-01-12T00:09:50.735Z,7.90
2023-01-12T00:12:18.827Z,7.90
2023-01-12T00:14:47.162Z,7.90
2023-01-12T00:17:17.682Z,7.90
2023-01-12T00:19:45.712Z,8.00
2023-01-12T00:22:17.762Z,8.10
2023-01-12T00:24:48.272Z,8.10
2023-01-12T00:27:19.284Z,8.10
2023-01-12T00:29:47.891Z,8.20
2023-01-12T00:32:17.671Z,8.20
2023-01-12T00:34:46.300Z,8.20
2023-01-12T00:37:14.810Z,8.30
2023-01-12T00:39:53.151Z,8.30
2023-01-12T00:42:44.620Z,8.30
2023-01-12T00:45:25.165Z,8.40
2023-01-12T00:47:53.900Z,8.30
2023-01-12T00:50:22.093Z,8.30
2023-01-12T00:52:50.514Z,8.20
2023-01-12T00:55:18.854Z,8.20
2023-01-12T00:57:48.473Z,8.10
2023-01-12T01:00:17.907Z,8.20
2023-01-12T01:02:46.802Z,8.30
2023-01-12T01:05:15.077Z,8.40
2023-01-12T01:07:43.431Z,8.50
2023-01-12T01:10:12.732Z,8.50
2023-01-12T01:12:41.448Z,8.60
2023-01-12T01:15:12.090Z,8.60
2023-01-12T01:17:40.587Z,8.70
2023-01-12T01:20:09.610Z,8.70
2023-01-12T01:22:38.106Z,8.70
2023-01-12T01:25:07.302Z,8.70
2023-01-12T01:27:35.640Z,8.70
2023-01-12T01:30:03.880Z,8.70
2023-01-12T01:32:33.588Z,8.70
2023-01-12T01:35:01.643Z,8.80
2023-01-12T01:37:29.900Z,8.70
2023-01-12T01:39:58.406Z,8.70
2023-01-12T01:42:29.205Z,8.70
2023-01-12T01:44:58.945Z,8.70
2023-01-12T01:47:30.102Z,8.70
2023-01-12T01:50:00.926Z,8.60
2023-01-12T01:52:31.600Z,8.40
2023-01-12T01:55:02.457Z,8.30
2023-01-12T01:57:33.417Z,8.10
2023-01-12T02:00:02.175Z,8.00
2023-01-12T02:02:30.690Z,7.90
2023-01-12T02:05:01.569Z,7.90
2023-01-12T02:07:29.797Z,7.90
2023-01-12T02:09:57.785Z,7.90
2023-01-12T02:12:43.566Z,7.90
2023-01-12T02:15:40.627Z,8.00
2023-01-12T02:18:16.305Z,8.00
2023-01-12T02:20:52.225Z,8.10
2023-01-12T02:23:39.183Z,8.10
2023-01-12T02:26:32.220Z,8.00
2023-01-12T02:29:13.618Z,8.10
2023-01-12T02:31:49.770Z,8.10
2023-01-12T02:34:24.704Z,8.00
2023-01-12T02:36:58.812Z,8.10
2023-01-12T02:39:30.237Z,8.00
2023-01-12T02:42:20.383Z,8.00
2023-01-12T02:44:53.142Z,8.00
2023-01-12T02:47:26.722Z,8.00
2023-01-12T02:49:57.760Z,8.00
2023-01-12T02:52:27.018Z,8.00
2023-01-12T02:54:57.362Z,8.00
2023-01-12T02:57:26.895Z,8.10
2023-01-12T02:59:56.374Z,8.10
2023-01-12T03:02:27.692Z,8.10
2023-01-12T03:04:56.350Z,8.10
2023-01-12T03:07:36.401Z,8.10
2023-01-12T03:10:11.304Z,8.10
2023-01-12T03:12:40.131Z,8.10
2023-01-12T03:15:15.866Z,8.10
2023-01-12T03:17:47.836Z,8.10
2023-01-12T03:20:18.568Z,8.10
2023-01-12T03:22:49.556Z,8.10
2023-01-12T03:25:20.130Z,8.10
2023-01-12T03:27:55.130Z,8.10
2023-01-12T03:30:24.415Z,8.20
2023-01-12T03:32:55.315Z,8.20
2023-01-12T03:36:01.733Z,8.20
2023-01-12T03:38:35.191Z,8.20
2023-01-12T03:41:06.200Z,8.20
2023-01-12T03:43:38.064Z,8.20
2023-01-12T03:46:13.883Z,8.20
2023-01-12T03:48:47.542Z,8.20
2023-01-12T03:51:22.811Z,8.20
2023-01-12T03:53:52.579Z,8.20
2023-01-12T03:56:39.622Z,8.20
2023-01-12T03:59:09.477Z,8.30
2023-01-12T04:01:39.380Z,8.30
2023-01-12T04:04:14.362Z,8.30
2023-01-12T04:06:45.081Z,8.30
2023-01-12T04:09:12.953Z,8.40
2023-01-12T04:12:01.463Z,8.40
2023-01-12T04:14:40.711Z,8.40
2023-01-12T04:17:09.363Z,8.50
2023-01-12T04:19:38.977Z,8.60
2023-01-12T04:22:24.595Z,8.60
2023-01-12T04:24:52.897Z,8.70
2023-01-12T04:27:20.887Z,8.80
2023-01-12T04:29:49.852Z,8.80
2023-01-12T04:32:19.577Z,8.90
2023-01-12T04:34:56.953Z,8.90
2023-01-12T04:37:25.009Z,9.00
2023-01-12T04:39:59.035Z,9.00
2023-01-12T04:42:49.487Z,9.00
2023-01-12T04:45:20.164Z,9.00
2023-01-12T04:47:48.721Z,9.10
2023-01-12T04:50:18.815Z,9.10
2023-01-12T04:52:47.669Z,9.10
2023-01-12T04:55:17.384Z,9.20
2023-01-12T04:57:47.072Z,9.20
2023-01-12T05:00:32.400Z,9.20
2023-01-12T05:03:02.480Z,9.20
2023-01-12T05:05:36.048Z,9.20
2023-01-12T05:08:22.722Z,9.20
2023-01-12T05:10:51.096Z,9.20
2023-01-12T05:13:19.265Z,9.20
2023-01-12T05:15:47.609Z,9.20
2023-01-12T05:18:15.980Z,9.20
2023-01-12T05:20:45.862Z,9.20
2023-01-12T05:23:14.264Z,9.20
2023-01-12T05:25:42.415Z,9.20
2023-01-12T05:28:10.668Z,9.20
2023-01-12T05:30:38.942Z,9.10
2023-01-12T05:33:07.431Z,9.20
2023-01-12T05:35:35.690Z,9.10
2023-01-12T05:38:05.646Z,9.10
2023-01-12T05:40:33.647Z,9.10
2023-01-12T05:43:27.487Z,9.10
2023-01-12T05:45:55.727Z,9.10
2023-01-12T05:48:24.019Z,9.10
2023-01-12T05:50:53.061Z,9.10
2023-01-12T05:53:22.728Z,9.00
2023-01-12T05:55:50.735Z,9.10
2023-01-12T05:58:18.847Z,9.10
2023-01-12T06:00:47.206Z,9.10
2023-01-12T06:03:15.482Z,9.10
2023-01-12T06:05:44.077Z,9.10
2023-01-12T06:08:13.165Z,9.20
2023-01-12T06:10:43.373Z,9.20
2023-01-12T06:13:28.916Z,9.20
2023-01-12T06:16:03.690Z,9.20
2023-01-12T06:18:34.139Z,9.20
2023-01-12T06:21:02.731Z,9.30
2023-01-12T06:23:34.907Z,9.30
2023-01-12T06:26:09.104Z,9.30
2023-01-12T06:28:39.317Z,9.30
2023-01-12T06:31:08.769Z,9.30
2023-01-12T06:33:37.353Z,9.30
2023-01-12T06:36:05.862Z,9.30
2023-01-12T06:38:40.436Z,9.40
2023-01-12T06:41:32.439Z,9.30
2023-01-12T06:44:01.194Z,9.30
2023-01-12T06:46:30.218Z,9.30
2023-01-12T06:48:58.753Z,9.30
2023-01-12T06:51:27.797Z,9.30
2023-01-12T06:53:56.037Z,9.40
2023-01-12T06:56:26.248Z,9.30
2023-01-12T06:58:54.404Z,9.30
2023-01-12T07:01:22.536Z,9.40
2023-01-12T07:03:50.939Z,9.40
2023-01-12T07:06:19.260Z,9.40
2023-01-12T07:08:49.909Z,9.40
2023-01-12T07:11:18.243Z,9.40
2023-01-12T07:13:47.888Z,9.50
2023-01-12T07:16:16.307Z,9.50
2023-01-12T07:18:45.135Z,9.50
2023-01-12T07:21:16.988Z,9.50
2023-01-12T07:23:48.363Z,9.60
2023-01-12T07:26:16.597Z,9.60
2023-01-12T07:28:45.368Z,9.60
2023-01-12T07:31:15.082Z,9.60
2023-01-12T07:33:43.363Z,9.60
2023-01-12T07:36:11.426Z,9.60
2023-01-12T07:38:39.483Z,9.50
2023-01-12T07:41:27.825Z,9.50
2023-01-12T07:44:02.745Z,9.40
2023-01-12T07:46:32.685Z,9.30
2023-01-12T07:49:01.016Z,9.30
2023-01-12T07:51:30.080Z,9.20
2023-01-12T07:53:58.059Z,9.10
2023-01-12T07:56:26.064Z,8.90
2023-01-12T07:58:54.219Z,8.80
2023-01-12T08:01:22.980Z,8.70
2023-01-12T08:03:52.741Z,8.60
2023-01-12T08:06:21.091Z,8.60
2023-01-12T08:08:49.408Z,8.50
2023-01-12T08:11:17.669Z,8.50
2023-01-12T08:13:46.019Z,8.50
2023-01-12T08:16:16.327Z,8.40
2023-01-12T08:18:46.436Z,8.30
2023-01-12T08:21:18.774Z,8.30
2023-01-12T08:23:49.191Z,8.30
2023-01-12T08:26:19.227Z,8.30
2023-01-12T08:28:51.026Z,8.30
2023-01-12T08:33:54.258Z,8.30
2023-01-12T08:36:24.485Z,8.30
2023-01-12T08:38:53.034Z,8.30
2023-01-12T08:41:37.690Z,8.40
2023-01-12T08:44:08.220Z,8.50
2023-01-12T08:46:37.325Z,8.60
2023-01-12T08:49:09.588Z,8.70
2023-01-12T08:51:40.951Z,8.80
2023-01-12T08:54:09.975Z,8.80
2023-01-12T08:56:38.450Z,8.90
2023-01-12T08:59:07.092Z,9.00
2023-01-12T09:01:36.158Z,9.00
2023-01-12T09:04:04.694Z,9.00
2023-01-12T09:06:34.607Z,9.00
2023-01-12T09:09:05.884Z,9.00
2023-01-12T09:11:35.304Z,9.00
2023-01-12T09:14:05.143Z,9.00
2023-01-12T09:16:34.023Z,9.00
2023-01-12T09:19:03.384Z,9.10
2023-01-12T09:21:33.653Z,9.10
2023-01-12T09:24:04.996Z,9.20
2023-01-12T09:26:39.875Z,9.20
2023-01-12T09:29:09.691Z,9.30
2023-01-12T09:31:38.652Z,9.40
2023-01-12T09:34:07.454Z,9.40
2023-01-12T09:36:36.754Z,9.40
2023-01-12T09:39:06.151Z,9.50
2023-01-12T09:41:56.659Z,9.60
2023-01-12T09:44:58.709Z,9.60
2023-01-12T09:47:32.561Z,9.70
2023-01-12T09:50:09.211Z,9.70
2023-01-12T09:52:41.124Z,9.80
2023-01-12T09:55:16.571Z,9.90
2023-01-12T09:58:06.237Z,9.90
2023-01-12T10:00:38.256Z,10.00
2023-01-12T10:03:08.998Z,10.00
2023-01-12T10:05:43.227Z,10.00
2023-01-12T10:08:16.267Z,9.90
2023-01-12T10:10:50.592Z,9.90
2023-01-12T10:13:20.529Z,10.00
2023-01-12T10:15:55.079Z,10.00
2023-01-12T10:18:36.551Z,10.00
2023-01-12T10:21:10.216Z,10.00
2023-01-12T10:23:38.594Z,10.00
2023-01-12T10:26:17.747Z,10.00
2023-01-12T10:28:49.284Z,10.00
2023-01-12T10:31:21.161Z,10.00
2023-01-12T10:34:02.597Z,10.10
2023-01-12T10:36:31.236Z,10.10
2023-01-12T10:39:02.569Z,10.20
2023-01-12T10:41:32.119Z,10.20
2023-01-12T10:44:16.584Z,10.20
2023-01-12T10:47:06.958Z,10.10
2023-01-12T10:49:35.079Z,10.00
2023-01-12T10:52:11.232Z,10.00
2023-01-12T10:54:44.001Z,10.00
2023-01-12T10:57:18.016Z,10.00
2023-01-12T10:59:51.987Z,10.10
2023-01-12T11:02:24.389Z,10.10
2023-01-12T11:04:54.328Z,10.10
2023-01-12T11:07:25.874Z,10.10
2023-01-12T11:09:55.394Z,10.10
2023-01-12T11:12:25.648Z,10.00
2023-01-12T11:15:02.997Z,10.00
2023-01-12T11:17:43.400Z,10.10
2023-01-12T11:20:16.727Z,10.10
2023-01-12T11:22:48.047Z,10.20
2023-01-12T11:25:20.434Z,10.20
2023-01-12T11:27:50.509Z,10.30
2023-01-12T11:30:22.351Z,10.20
2023-01-12T11:32:55.346Z,10.30
2023-01-12T11:35:30.364Z,10.30
2023-01-12T11:38:00.137Z,10.30
2023-01-12T11:40:31.212Z,10.30
2023-01-12T11:43:21.607Z,10.30
2023-01-12T11:45:53.838Z,10.40
2023-01-12T11:48:27.718Z,10.40
2023-01-12T11:50:56.472Z,10.40
2023-01-12T11:53:26.097Z,10.50
2023-01-12T11:56:01.403Z,10.50
2023-01-12T11:58:33.480Z,10.50
2023-01-12T12:01:05.378Z,10.50
2023-01-12T12:03:52.454Z,10.50
2023-01-12T12:06:29.631Z,10.50
2023-01-12T12:09:03.355Z,10.40
2023-01-12T12:11:35.925Z,10.40
2023-01-12T12:14:13.097Z,10.40
2023-01-12T12:16:46.208Z,10.40
2023-01-12T12:19:20.656Z,10.40
2023-01-12T12:21:51.281Z,10.40
2023-01-12T12:24:32.538Z,10.40
2023-01-12T12:27:05.591Z,10.40
2023-01-12T12:29:44.650Z,10.40
2023-01-12T12:32:25.420Z,10.40
2023-01-12T12:35:08.051Z,10.40
2023-01-12T12:37:46.067Z,10.40
2023-01-12T12:40:19.409Z,10.40
2023-01-12T12:43:09.786Z,10.40
2023-01-12T12:45:43.705Z,10.40
2023-01-12T12:48:15.708Z,10.50
2023-01-12T12:50:48.894Z,10.50
2023-01-12T12:53:24.210Z,10.50
2023-01-12T12:55:54.506Z,10.50
2023-01-12T12:58:28.775Z,10.50
2023-01-12T13:01:17.176Z,10.50
2023-01-12T13:03:50.385Z,10.40
2023-01-12T13:06:21.145Z,10.50
2023-01-12T13:08:53.580Z,10.40
2023-01-12T13:11:23.088Z,10.50
2023-01-12T13:13:59.251Z,10.50
2023-01-12T13:16:43.242Z,10.50
2023-01-12T13:19:34.364Z,10.50
2023-01-12T13:22:26.733Z,10.40
2023-01-12T13:25:02.113Z,10.40
2023-01-12T13:27:50.545Z,10.40
2023-01-12T13:30:26.925Z,10.40
2023-01-12T13:33:17.073Z,10.50
2023-01-12T13:36:00.357Z,10.50
2023-01-12T13:38:38.684Z,10.50
2023-01-12T13:41:17.880Z,10.60
2023-01-12T13:43:50.006Z,10.60
2023-01-12T13:46:19.840Z,10.60
2023-01-12T13:48:49.808Z,10.70
2023-01-12T13:51:20.977Z,10.70
2023-01-12T13:53:58.412Z,10.70
2023-01-12T13:56:29.037Z,10.60
2023-01-12T13:59:01.640Z,10.60
2023-01-12T14:01:31.780Z,10.60
2023-01-12T14:04:20.238Z,10.70
2023-01-12T14:06:53.930Z,10.70
2023-01-12T14:09:26.196Z,10.70
2023-01-12T14:12:15.672Z,10.60
2023-01-12T14:15:07.353Z,10.60
2023-01-12T14:17:58.723Z,10.60
2023-01-12T14:20:28.814Z,10.60
2023-01-12T14:23:09.345Z,10.70
2023-01-12T14:25:38.642Z,10.70
2023-01-12T14:28:07.118Z,10.70
2023-01-12T14:30:36.913Z,10.70
2023-01-12T14:33:05.468Z,10.70
2023-01-12T14:35:34.636Z,10.70
2023-01-12T14:38:03.919Z,10.70
2023-01-12T14:40:33.218Z,10.70
2023-01-12T14:43:19.721Z,10.70
2023-01-12T14:46:14.877Z,10.70
2023-01-12T14:48:48.990Z,10.70
2023-01-12T14:51:23.217Z,10.70
2023-01-12T14:53:57.703Z,10.70
2023-01-12T14:56:28.162Z,10.70
2023-01-12T14:59:07.082Z,10.70
2023-01-12T15:01:37.516Z,10.70
2023-01-12T15:04:06.959Z,10.70
2023-01-12T15:06:41.277Z,10.70
2023-01-12T15:09:24.305Z,10.70
2023-01-12T15:11:53.579Z,10.70
2023-01-12T15:14:27.552Z,10.70
2023-01-12T15:17:18.330Z,10.70
2023-01-12T15:20:04.563Z,10.60
2023-01-12T15:22:51.863Z,10.60
2023-01-12T15:25:39.212Z,10.60
2023-01-12T15:28:08.592Z,10.50
2023-01-12T15:30:38.347Z,10.50
2023-01-12T15:33:10.638Z,10.50
2023-01-12T15:35:51.077Z,10.50
2023-01-12T15:38:20.853Z,10.60
2023-01-12T15:40:51.671Z,10.60
2023-01-12T15:43:20.434Z,10.50
2023-01-12T15:45:52.133Z,10.50
2023-01-12T15:48:22.568Z,10.50
2023-01-12T15:50:54.983Z,10.50
2023-01-12T15:53:25.434Z,10.50
2023-01-12T15:55:55.404Z,10.40
2023-01-12T15:58:30.608Z,10.50
2023-01-12T16:01:02.794Z,10.50
2023-01-12T16:04:00.529Z,10.50
2023-01-12T16:06:20.792Z,10.50
2023-01-12T16:08:51.417Z,10.60
2023-01-12T16:11:24.409Z,10.60
2023-01-12T16:13:53.292Z,10.60
2023-01-12T16:16:22.605Z,10.50
2023-01-12T16:18:52.305Z,10.50
2023-01-12T16:21:22.811Z,10.50
2023-01-12T16:23:51.148Z,10.40
2023-01-12T16:26:19.839Z,10.40
2023-01-12T16:28:48.469Z,10.40
2023-01-12T16:31:17.153Z,10.40
2023-01-12T16:33:52.800Z,10.40
2023-01-12T16:36:22.359Z,10.40
2023-01-12T16:38:53.365Z,10.30
2023-01-12T16:41:22.492Z,10.20
2023-01-12T16:43:51.530Z,10.20
2023-01-12T16:46:20.097Z,10.30
2023-01-12T16:48:48.528Z,10.30
2023-01-12T16:51:18.077Z,10.30
2023-01-12T16:53:48.419Z,10.30
2023-01-12T16:56:17.603Z,10.30
2023-01-12T16:58:48.687Z,10.40
2023-01-12T17:01:18.965Z,10.40
2023-01-12T17:03:47.635Z,10.30
2023-01-12T17:06:16.819Z,10.30
2023-01-12T17:08:45.307Z,10.30
2023-01-12T17:11:19.229Z,10.30
2023-01-12T17:13:52.108Z,10.40
2023-01-12T17:16:22.692Z,10.40
2023-01-12T17:18:52.898Z,10.40
2023-01-12T17:21:21.567Z,10.40
2023-01-12T17:23:50.488Z,10.40
2023-01-12T17:26:20.515Z,10.40
2023-01-12T17:28:52.971Z,10.40
2023-01-12T17:31:21.580Z,10.40
2023-01-12T17:33:50.716Z,10.40
2023-01-12T17:36:19.446Z,10.40
2023-01-12T17:38:48.863Z,10.40
2023-01-12T17:41:32.318Z,10.40
2023-01-12T17:44:03.538Z,10.40
2023-01-12T17:46:32.626Z,10.40
2023-01-12T17:49:01.733Z,10.40
2023-01-12T17:51:30.657Z,10.40
2023-01-12T17:53:59.436Z,10.50
2023-01-12T17:56:30.671Z,10.40
2023-01-12T17:58:59.479Z,10.30
2023-01-12T18:01:31.367Z,10.30
2023-01-12T18:04:00.140Z,10.30
2023-01-12T18:06:28.931Z,10.30
2023-01-12T18:08:59.935Z,10.40
2023-01-12T18:11:29.912Z,10.40
2023-01-12T18:13:58.468Z,10.40
2023-01-12T18:16:27.306Z,10.50
2023-01-12T18:18:58.199Z,10.50
2023-01-12T18:21:27.443Z,10.50
2023-01-12T18:23:57.207Z,10.40
2023-01-12T18:26:27.645Z,10.40
2023-01-12T18:28:56.742Z,10.30
2023-01-12T18:31:27.405Z,10.30
2023-01-12T18:34:01.173Z,10.20
2023-01-12T18:36:32.716Z,10.20
2023-01-12T18:39:02.262Z,10.20
2023-01-12T18:41:48.095Z,10.30
2023-01-12T18:44:16.424Z,10.20
2023-01-12T18:47:02.811Z,10.20
2023-01-12T18:49:33.662Z,10.30
2023-01-12T18:52:19.878Z,10.20
2023-01-12T18:54:51.721Z,10.30
2023-01-12T18:57:21.104Z,10.30
2023-01-12T18:59:51.492Z,10.40
2023-01-12T19:02:21.827Z,10.40
2023-01-12T19:05:11.521Z,10.40
2023-01-12T19:07:51.820Z,10.50
2023-01-12T19:10:20.784Z,10.50
2023-01-12T19:12:49.745Z,10.60
2023-01-12T19:15:32.017Z,10.60
2023-01-12T19:18:00.891Z,10.60
2023-01-12T19:20:31.585Z,10.60
2023-01-12T19:23:17.384Z,10.60
2023-01-12T19:26:08.949Z,10.70
2023-01-12T19:28:38.892Z,10.60
2023-01-12T19:31:10.030Z,10.60
2023-01-12T19:33:39.019Z,10.60
2023-01-12T19:36:15.678Z,10.60
2023-01-12T19:38:50.541Z,10.60
2023-01-12T19:41:33.089Z,10.60
2023-01-12T19:44:05.401Z,10.50
2023-01-12T19:46:33.806Z,10.50
2023-01-12T19:49:02.670Z,10.50
2023-01-12T19:51:33.443Z,10.50
2023-01-12T19:54:02.040Z,10.50
2023-01-12T19:56:30.889Z,10.40
2023-01-12T19:58:59.341Z,10.50
2023-01-12T20:01:28.696Z,10.50
2023-01-12T20:03:57.421Z,10.50
2023-01-12T20:06:25.855Z,10.50
2023-01-12T20:08:56.344Z,10.50
2023-01-12T20:11:24.684Z,10.60
2023-01-12T20:13:53.040Z,10.60
2023-01-12T20:16:22.009Z,10.60
2023-01-12T20:18:51.209Z,10.50
2023-01-12T20:21:20.497Z,10.50
2023-01-12T20:23:49.326Z,10.50
2023-01-12T20:26:19.903Z,10.50
2023-01-12T20:28:48.507Z,10.40
2023-01-12T20:31:17.618Z,10.40
2023-01-12T20:33:48.219Z,10.40
2023-01-12T20:36:17.592Z,10.40
2023-01-12T20:38:47.671Z,10.40
2023-01-12T20:41:20.637Z,10.40
2023-01-12T20:43:51.911Z,10.40
2023-01-12T20:46:21.959Z,10.40
2023-01-12T20:48:51.077Z,10.30
2023-01-12T20:51:19.875Z,10.20
2023-01-12T20:53:48.517Z,10.20
2023-01-12T20:56:18.024Z,10.30
2023-01-12T20:58:46.859Z,10.30
2023-01-12T21:01:17.277Z,10.30
2023-01-12T21:03:46.399Z,10.30
2023-01-12T21:06:16.375Z,10.40
2023-01-12T21:08:45.500Z,10.40
2023-01-12T21:11:14.860Z,10.50
2023-01-12T21:13:43.683Z,10.50
2023-01-12T21:16:14.195Z,10.50
2023-01-12T21:18:44.441Z,10.50
2023-01-12T21:21:13.178Z,10.50
2023-01-12T21:23:42.369Z,10.60
2023-01-12T21:26:11.389Z,10.50
2023-01-12T21:28:40.519Z,10.60
2023-01-12T21:31:10.266Z,10.60
2023-01-12T21:33:39.197Z,10.50
2023-01-12T21:36:09.317Z,10.60
2023-01-12T21:38:38.910Z,10.60
2023-01-12T21:41:07.562Z,10.60
2023-01-12T21:43:37.723Z,10.50
2023-01-12T21:46:07.148Z,10.50
2023-01-12T21:48:36.210Z,10.50
2023-01-12T21:51:05.559Z,10.50
2023-01-12T21:53:36.242Z,10.50
2023-01-12T21:56:06.912Z,10.50
2023-01-12T21:58:36.543Z,10.50
2023-01-12T22:01:08.887Z,10.50
2023-01-12T22:03:38.995Z,10.50
2023-01-12T22:06:08.280Z,10.50
2023-01-12T22:08:39.734Z,10.50
2023-01-12T22:11:09.170Z,10.50
2023-01-12T22:13:37.719Z,10.50
2023-01-12T22:16:07.152Z,10.50
2023-01-12T22:18:43.141Z,10.40
2023-01-12T22:21:13.880Z,10.40
2023-01-12T22:23:43.984Z,10.30
2023-01-12T22:26:13.098Z,10.20
2023-01-12T22:28:42.635Z,10.20
2023-01-12T22:31:12.459Z,10.20
2023-01-12T22:33:41.026Z,10.20
2023-01-12T22:36:09.928Z,10.20
2023-01-12T22:38:38.618Z,10.10
2023-01-12T22:41:09.023Z,10.00
2023-01-12T22:43:40.955Z,10.00
2023-01-12T22:46:15.987Z,9.90
2023-01-12T22:48:44.237Z,9.90
2023-01-12T22:51:13.138Z,10.00
2023-01-12T22:53:41.651Z,10.00
2023-01-12T22:56:12.215Z,10.10
2023-01-12T22:58:40.544Z,10.10
2023-01-12T23:01:09.598Z,10.10
2023-01-12T23:04:03.989Z,10.10
2023-01-12T23:06:32.536Z,10.20
2023-01-12T23:09:00.898Z,10.20
2023-01-12T23:11:30.452Z,10.20
2023-01-12T23:13:59.266Z,10.20
2023-01-12T23:16:28.770Z,10.20
2023-01-12T23:18:57.104Z,10.20
2023-01-12T23:21:27.073Z,10.20
2023-01-12T23:23:56.733Z,10.20
2023-01-12T23:26:25.970Z,10.20
2023-01-12T23:28:56.957Z,10.20
2023-01-12T23:31:26.577Z,10.20
2023-01-12T23:33:55.035Z,10.20
2023-01-12T23:36:24.402Z,10.20
2023-01-12T23:38:54.424Z,10.20
2023-01-12T23:41:24.633Z,10.20
2023-01-12T23:43:53.786Z,10.20
2023-01-12T23:46:23.957Z,10.20
2023-01-12T23:48:52.937Z,10.30
2023-01-12T23:51:21.639Z,10.30
2023-01-12T23:53:50.513Z,10.30
2023-01-12T23:56:19.129Z,10.30
2023-01-12T23:58:47.816Z,10.30
